createdAt,value
2023-04-11T00:00:35.183Z,47.20
2023-04-11T00:03:01.936Z,46.81
2023-04-11T00:05:31.377Z,47.41
2023-04-11T00:07:58.126Z,47.49
2023-04-11T00:10:25.315Z,47.38
2023-04-11T00:12:56.525Z,46.98
2023-04-11T00:15:24.554Z,47.34
2023-04-11T00:17:51.309Z,47.04
2023-04-11T00:20:17.907Z,47.15
2023-04-11T00:22:44.426Z,47.52
2023-04-11T00:25:11.116Z,47.22
2023-04-11T00:27:37.703Z,47.15
2023-04-11T00:30:08.056Z,47.75
2023-04-11T00:32:34.698Z,47.42
2023-04-11T00:35:01.802Z,47.53
2023-04-11T00:37:28.427Z,47.47
2023-04-11T00:39:55.910Z,47.54
2023-04-11T00:42:22.462Z,47.52
2023-04-11T00:44:49.179Z,47.87
2023-04-11T00:47:15.810Z,47.44
2023-04-11T00:49:42.776Z,47.97
2023-04-11T00:52:09.464Z,47.87
2023-04-11T00:54:36.021Z,47.77
2023-04-11T00:57:04.317Z,47.63
2023-04-11T00:59:32.634Z,47.83
2023-04-11T01:02:00.175Z,47.99
2023-04-11T01:04:27.196Z,48.11
2023-04-11T01:06:59.039Z,48.02
2023-04-11T01:09:28.532Z,48.54
2023-04-11T01:11:56.202Z,48.26
2023-04-11T01:14:24.663Z,47.72
2023-04-11T01:16:52.061Z,48.07
2023-04-11T01:19:20.356Z,48.22
2023-04-11T01:21:49.796Z,47.80
2023-04-11T01:24:16.732Z,48.28
2023-04-11T01:26:43.471Z,48.61
2023-04-11T01:29:10.143Z,48.44
2023-04-11T01:31:36.662Z,48.57
2023-04-11T01:34:04.454Z,48.68
2023-04-11T01:36:32.299Z,48.57
2023-04-11T01:38:59.243Z,48.25
2023-04-11T01:41:27.541Z,48.82
2023-04-11T01:43:54.276Z,48.28
2023-04-11T01:46:21.898Z,48.68
2023-04-11T01:48:50.893Z,48.85
2023-04-11T01:51:17.432Z,48.50
2023-04-11T01:53:45.979Z,48.58
2023-04-11T01:56:13.057Z,48.62
2023-04-11T01:58:39.830Z,48.81
2023-04-11T02:01:06.428Z,48.69
2023-04-11T02:03:33.140Z,48.51
2023-04-11T02:05:59.748Z,48.56
2023-04-11T02:08:26.279Z,48.71
2023-04-11T02:10:52.835Z,48.50
2023-04-11T02:13:19.357Z,48.68
2023-04-11T02:15:45.883Z,48.48
2023-04-11T02:18:13.109Z,48.94
2023-04-11T02:20:42.187Z,48.43
2023-04-11T02:23:08.768Z,48.47
2023-04-11T02:25:35.334Z,48.73
2023-04-11T02:28:02.117Z,49.08
2023-04-11T02:30:28.723Z,48.56
2023-04-11T02:32:55.306Z,48.62
2023-04-11T02:35:21.843Z,48.92
2023-04-11T02:37:48.383Z,48.84
2023-04-11T02:40:14.970Z,48.87
2023-04-11T02:42:43.174Z,48.58
2023-04-11T02:45:11.736Z,48.47
2023-04-11T02:47:39.429Z,48.73
2023-04-11T02:50:06.658Z,48.71
2023-04-11T02:52:33.783Z,48.94
2023-04-11T02:55:00.480Z,49.10
2023-04-11T02:57:27.749Z,48.55
2023-04-11T02:59:54.328Z,48.83
2023-04-11T03:02:23.302Z,48.96
2023-04-11T03:04:50.224Z,48.51
2023-04-11T03:07:16.765Z,48.94
2023-04-11T03:09:43.339Z,48.72
2023-04-11T03:12:09.887Z,48.96
2023-04-11T03:14:36.393Z,48.98
2023-04-11T03:17:02.928Z,48.92
2023-04-11T03:19:29.498Z,48.61
2023-04-11T03:21:56.454Z,48.77
2023-04-11T03:24:22.997Z,49.03
2023-04-11T03:26:49.559Z,48.67
2023-04-11T03:29:16.596Z,48.58
2023-04-11T03:31:43.230Z,48.98
2023-04-11T03:34:09.802Z,48.88
2023-04-11T03:36:36.307Z,49.19
2023-04-11T03:39:03.754Z,49.07
2023-04-11T03:41:30.321Z,49.13
2023-04-11T03:43:56.895Z,49.20
2023-04-11T03:46:23.507Z,49.12
2023-04-11T03:48:50.183Z,48.78
2023-04-11T03:51:16.885Z,48.75
2023-04-11T03:53:43.482Z,48.63
2023-04-11T03:56:10.437Z,48.81
2023-04-11T03:58:37.119Z,48.63
2023-04-11T04:01:03.750Z,49.10
2023-04-11T04:03:30.628Z,48.90
2023-04-11T04:05:57.317Z,48.93
2023-04-11T04:08:23.823Z,48.88
2023-04-11T04:10:50.360Z,48.86
2023-04-11T04:13:17.027Z,48.72
2023-04-11T04:15:43.696Z,48.77
2023-04-11T04:18:10.306Z,48.80
2023-04-11T04:20:36.873Z,49.25
2023-04-11T04:23:04.579Z,48.57
2023-04-11T04:25:31.169Z,49.04
2023-04-11T04:27:58.224Z,49.14
2023-04-11T04:30:28.603Z,49.05
2023-04-11T04:32:59.157Z,48.96
2023-04-11T04:35:26.769Z,48.91
2023-04-11T04:37:54.165Z,48.66
2023-04-11T04:40:21.373Z,49.05
2023-04-11T04:42:58.098Z,49.07
2023-04-11T04:45:26.245Z,49.07
2023-04-11T04:47:52.993Z,49.19
2023-04-11T04:50:20.483Z,48.83
2023-04-11T04:52:47.172Z,48.81
2023-04-11T04:55:14.567Z,49.07
2023-04-11T04:57:42.753Z,48.57
2023-04-11T05:00:11.968Z,49.16
2023-04-11T05:02:40.567Z,48.96
2023-04-11T05:05:07.835Z,49.10
2023-04-11T05:07:34.793Z,49.01
2023-04-11T05:10:01.492Z,48.77
2023-04-11T05:12:28.130Z,48.68
2023-04-11T05:14:56.606Z,49.05
2023-04-11T05:17:25.505Z,48.94
2023-04-11T05:19:52.367Z,48.88
2023-04-11T05:22:18.854Z,48.79
2023-04-11T05:24:45.452Z,49.07
2023-04-11T05:27:13.321Z,48.69
2023-04-11T05:29:40.015Z,48.86
2023-04-11T05:32:06.624Z,48.64
2023-04-11T05:34:34.373Z,48.54
2023-04-11T05:37:01.431Z,48.71
2023-04-11T05:39:28.020Z,48.84
2023-04-11T05:41:54.563Z,49.00
2023-04-11T05:44:21.248Z,48.47
2023-04-11T05:46:47.809Z,48.62
2023-04-11T05:49:14.520Z,48.24
2023-04-11T05:51:41.084Z,48.10
2023-04-11T05:54:07.657Z,48.15
2023-04-11T05:56:35.262Z,48.43
2023-04-11T05:59:01.787Z,47.70
2023-04-11T06:01:30.148Z,47.59
2023-04-11T06:03:57.432Z,47.74
2023-04-11T06:06:24.362Z,47.64
2023-04-11T06:08:51.303Z,47.24
2023-04-11T06:11:17.886Z,47.93
2023-04-11T06:13:44.443Z,47.48
2023-04-11T06:16:11.024Z,47.96
2023-04-11T06:18:37.558Z,47.57
2023-04-11T06:21:04.176Z,47.59
2023-04-11T06:23:30.713Z,47.66
2023-04-11T06:25:57.233Z,47.47
2023-04-11T06:28:23.943Z,47.20
2023-04-11T06:30:50.513Z,47.17
2023-04-11T06:33:17.069Z,47.04
2023-04-11T06:35:43.679Z,46.78
2023-04-11T06:38:10.277Z,46.99
2023-04-11T06:40:36.804Z,47.09
2023-04-11T06:43:03.339Z,46.71
2023-04-11T06:45:29.888Z,47.01
2023-04-11T06:47:56.483Z,46.72
2023-04-11T06:50:23.174Z,46.60
2023-04-11T06:52:49.729Z,46.53
2023-04-11T06:55:16.775Z,46.62
2023-04-11T06:57:43.846Z,46.70
2023-04-11T07:00:12.488Z,46.22
2023-04-11T07:02:39.513Z,46.52
2023-04-11T07:05:06.854Z,46.17
2023-04-11T07:07:33.418Z,46.33
2023-04-11T07:09:59.959Z,45.80
2023-04-11T07:12:26.516Z,45.81
2023-04-11T07:14:53.125Z,46.00
2023-04-11T07:17:19.642Z,45.64
2023-04-11T07:19:46.658Z,45.96
2023-04-11T07:22:13.265Z,45.71
2023-04-11T07:24:39.799Z,45.89
2023-04-11T07:27:06.765Z,45.52
2023-04-11T07:29:33.276Z,45.78
2023-04-11T07:31:59.860Z,45.94
2023-04-11T07:34:26.523Z,45.67
2023-04-11T07:36:53.149Z,46.04
2023-04-11T07:39:19.700Z,45.84
2023-04-11T07:41:46.269Z,45.91
2023-04-11T07:44:12.815Z,45.43
2023-04-11T07:46:39.416Z,45.42
2023-04-11T07:49:06.025Z,45.97
2023-04-11T07:51:33.091Z,45.53
2023-04-11T07:53:59.732Z,45.73
2023-04-11T07:56:26.663Z,45.38
2023-04-11T07:58:53.284Z,45.26
2023-04-11T08:01:21.458Z,45.63
2023-04-11T08:03:48.289Z,45.44
2023-04-11T08:06:14.978Z,45.53
2023-04-11T08:08:41.519Z,45.47
2023-04-11T08:11:08.127Z,45.79
2023-04-11T08:13:34.660Z,45.63
2023-04-11T08:16:02.837Z,45.50
2023-04-11T08:18:29.912Z,45.76
2023-04-11T08:20:56.456Z,45.39
2023-04-11T08:23:22.935Z,45.49
2023-04-11T08:25:49.543Z,45.55
2023-04-11T08:28:16.463Z,44.71
2023-04-11T08:30:43.043Z,45.48
2023-04-11T08:33:10.182Z,44.62
2023-04-11T08:35:37.762Z,44.80
2023-04-11T08:38:04.323Z,44.91
2023-04-11T08:40:30.871Z,44.51
2023-04-11T08:43:01.630Z,44.66
2023-04-11T08:45:28.758Z,44.82
2023-04-11T08:47:55.473Z,44.39
2023-04-11T08:50:29.759Z,44.13
2023-04-11T08:52:59.181Z,44.24
2023-04-11T08:55:25.749Z,44.06
2023-04-11T08:57:53.667Z,44.24
2023-04-11T09:00:24.106Z,44.01
2023-04-11T09:02:59.102Z,43.88
2023-04-11T09:05:31.148Z,43.96
2023-04-11T09:07:59.780Z,44.08
2023-04-11T09:10:27.673Z,43.86
2023-04-11T09:12:55.530Z,44.06
2023-04-11T09:15:25.772Z,44.04
2023-04-11T09:17:52.747Z,43.79
2023-04-11T09:20:21.322Z,43.72
2023-04-11T09:22:51.772Z,43.93
2023-04-11T09:25:23.017Z,43.53
2023-04-11T09:27:50.772Z,43.80
2023-04-11T09:30:25.378Z,44.00
2023-04-11T09:32:53.935Z,43.43
2023-04-11T09:35:25.757Z,43.32
2023-04-11T09:37:59.284Z,43.21
2023-04-11T09:40:27.320Z,42.88
2023-04-11T09:43:02.336Z,42.99
2023-04-11T09:45:32.155Z,43.14
2023-04-11T09:48:02.487Z,42.93
2023-04-11T09:50:29.163Z,43.25
2023-04-11T09:52:58.918Z,42.81
2023-04-11T09:55:25.982Z,43.26
2023-04-11T09:57:54.627Z,43.31
2023-04-11T10:00:24.192Z,42.50
2023-04-11T10:02:53.596Z,42.34
2023-04-11T10:05:27.973Z,42.72
2023-04-11T10:08:22.079Z,42.93
2023-04-11T10:10:48.762Z,42.91
2023-04-11T10:13:40.135Z,42.88
2023-04-11T10:16:09.006Z,42.27
2023-04-11T10:18:36.584Z,42.36
2023-04-11T10:21:04.311Z,42.34
2023-04-11T10:24:17.788Z,42.53
2023-04-11T10:26:51.630Z,42.18
2023-04-11T10:29:42.972Z,42.14
2023-04-11T10:32:15.500Z,42.09
2023-04-11T10:34:54.161Z,41.60
2023-04-11T10:37:38.877Z,42.01
2023-04-11T10:40:10.452Z,42.15
2023-04-11T10:42:42.749Z,41.65
2023-04-11T10:45:19.124Z,41.42
2023-04-11T10:47:51.619Z,40.91
2023-04-11T10:50:27.119Z,41.45
2023-04-11T10:52:55.489Z,41.14
2023-04-11T10:55:22.608Z,41.29
2023-04-11T10:58:08.177Z,40.79
2023-04-11T11:00:48.181Z,40.78
2023-04-11T11:03:16.736Z,40.69
2023-04-11T11:05:43.808Z,40.85
2023-04-11T11:08:10.662Z,40.70
2023-04-11T11:10:47.886Z,40.73
2023-04-11T11:13:15.975Z,40.40
2023-04-11T11:15:49.698Z,40.42
2023-04-11T11:18:16.623Z,40.59
2023-04-11T11:20:43.473Z,40.06
2023-04-11T11:23:11.654Z,40.36
2023-04-11T11:25:38.349Z,40.02
2023-04-11T11:28:07.987Z,40.14
2023-04-11T11:30:38.074Z,40.07
2023-04-11T11:35:53.552Z,39.66
2023-04-11T11:38:21.116Z,39.98
2023-04-11T11:40:48.844Z,40.08
2023-04-11T11:43:16.580Z,39.91
2023-04-11T11:45:43.923Z,39.95
2023-04-11T11:48:23.953Z,39.53
2023-04-11T11:50:57.865Z,39.68
2023-04-11T11:53:26.710Z,39.57
2023-04-11T11:55:53.825Z,39.64
2023-04-11T11:58:20.722Z,39.58
2023-04-11T12:00:50.223Z,39.43
2023-04-11T12:03:24.213Z,39.48
2023-04-11T12:05:55.155Z,39.45
2023-04-11T12:08:24.244Z,39.09
2023-04-11T12:10:51.522Z,39.36
2023-04-11T12:13:27.600Z,38.78
2023-04-11T12:15:56.251Z,39.07
2023-04-11T12:18:28.428Z,38.87
2023-04-11T12:20:55.382Z,38.86
2023-04-11T12:23:22.606Z,38.85
2023-04-11T12:25:49.181Z,38.66
2023-04-11T12:28:15.905Z,38.85
2023-04-11T12:30:42.470Z,38.77
2023-04-11T12:33:09.151Z,38.86
2023-04-11T12:35:35.711Z,38.86
2023-04-11T12:38:02.421Z,39.18
2023-04-11T12:40:29.771Z,39.04
2023-04-11T12:42:57.479Z,39.05
2023-04-11T12:45:25.136Z,39.05
2023-04-11T12:47:52.227Z,38.79
2023-04-11T12:50:18.951Z,38.59
2023-04-11T12:52:45.526Z,38.83
2023-04-11T12:55:13.434Z,38.84
2023-04-11T12:57:40.978Z,39.07
2023-04-11T13:00:08.848Z,39.15
2023-04-11T13:02:42.780Z,39.05
2023-04-11T13:05:13.921Z,39.18
2023-04-11T13:07:41.090Z,38.66
2023-04-11T13:10:08.392Z,38.64
2023-04-11T13:12:39.747Z,38.42
2023-04-11T13:15:07.923Z,38.60
2023-04-11T13:17:34.608Z,38.47
2023-04-11T13:20:01.392Z,38.18
2023-04-11T13:22:27.967Z,38.74
2023-04-11T13:24:54.554Z,38.39
2023-04-11T13:27:22.108Z,38.78
2023-04-11T13:29:48.793Z,38.72
2023-04-11T13:32:15.535Z,38.68
2023-04-11T13:34:42.460Z,38.89
2023-04-11T13:37:09.120Z,38.64
2023-04-11T13:39:35.829Z,38.49
2023-04-11T13:42:02.347Z,38.50
2023-04-11T13:44:28.865Z,38.56
2023-04-11T13:46:55.442Z,38.49
2023-04-11T13:49:21.938Z,38.80
2023-04-11T13:51:48.644Z,38.53
2023-04-11T13:54:15.477Z,38.62
2023-04-11T13:56:42.207Z,38.56
2023-04-11T13:59:08.746Z,38.56
2023-04-11T14:01:35.343Z,38.85
2023-04-11T14:04:02.272Z,38.85
2023-04-11T14:06:28.980Z,38.81
2023-04-11T14:08:55.510Z,38.99
2023-04-11T14:11:22.054Z,38.86
2023-04-11T14:13:48.846Z,39.08
2023-04-11T14:16:15.577Z,39.47
2023-04-11T14:21:08.838Z,39.24
2023-04-11T14:23:35.850Z,39.08
2023-04-11T14:26:02.367Z,39.33
2023-04-11T14:28:28.946Z,38.86
2023-04-11T14:30:56.924Z,39.25
2023-04-11T14:33:23.684Z,39.20
2023-04-11T14:35:50.935Z,39.34
2023-04-11T14:38:17.582Z,39.77
2023-04-11T14:40:44.542Z,39.28
2023-04-11T14:43:11.302Z,39.33
2023-04-11T14:45:38.034Z,39.71
2023-04-11T14:48:04.914Z,39.84
2023-04-11T14:50:31.543Z,39.83
2023-04-11T14:52:58.346Z,39.61
2023-04-11T14:55:24.923Z,39.63
2023-04-11T14:57:53.429Z,39.95
2023-04-11T15:00:20.947Z,39.97
2023-04-11T15:02:50.740Z,39.94
2023-04-11T15:05:18.228Z,39.75
2023-04-11T15:07:46.471Z,40.05
2023-04-11T15:10:14.314Z,39.89
2023-04-11T15:12:41.310Z,40.20
2023-04-11T15:15:11.309Z,40.16
2023-04-11T15:17:47.256Z,40.14
2023-04-11T15:20:15.073Z,39.71
2023-04-11T15:22:44.141Z,39.91
2023-04-11T15:25:13.351Z,39.55
2023-04-11T15:27:41.010Z,39.97
2023-04-11T15:30:08.395Z,39.73
2023-04-11T15:32:35.277Z,39.83
2023-04-11T15:35:02.080Z,40.02
2023-04-11T15:37:29.078Z,39.45
2023-04-11T15:39:57.612Z,39.68
2023-04-11T15:42:24.470Z,38.96
2023-04-11T15:44:51.020Z,39.01
2023-04-11T15:47:17.673Z,39.33
2023-04-11T15:49:44.340Z,39.67
2023-04-11T15:52:11.785Z,39.45
2023-04-11T15:54:38.326Z,39.58
2023-04-11T15:57:04.851Z,39.23
2023-04-11T15:59:31.428Z,38.73
2023-04-11T16:01:58.145Z,39.05
2023-04-11T16:04:25.723Z,39.02
2023-04-11T16:06:52.652Z,38.95
2023-04-11T16:09:19.267Z,39.39
2023-04-11T16:11:45.999Z,40.26
2023-04-11T16:14:12.833Z,40.98
2023-04-11T16:16:39.510Z,41.19
2023-04-11T16:19:06.545Z,41.48
2023-04-11T16:21:33.226Z,41.55
2023-04-11T16:23:59.802Z,41.43
2023-04-11T16:26:27.038Z,41.05
2023-04-11T16:28:53.712Z,40.91
2023-04-11T16:31:24.530Z,41.09
2023-04-11T16:33:52.786Z,41.06
2023-04-11T16:36:20.404Z,40.94
2023-04-11T16:38:49.502Z,40.52
2023-04-11T16:41:17.432Z,40.46
2023-04-11T16:43:44.622Z,40.45
2023-04-11T16:46:15.115Z,39.96
2023-04-11T16:48:42.478Z,40.19
2023-04-11T16:51:10.905Z,40.08
2023-04-11T16:53:38.408Z,39.77
2023-04-11T16:56:05.492Z,39.62
2023-04-11T16:58:32.276Z,39.66
2023-04-11T17:01:00.465Z,39.39
2023-04-11T17:03:27.349Z,39.65
2023-04-11T17:05:54.104Z,39.58
2023-04-11T17:08:20.899Z,39.66
2023-04-11T17:10:47.597Z,39.32
2023-04-11T17:13:14.874Z,39.24
2023-04-11T17:15:41.509Z,39.28
2023-04-11T17:18:08.204Z,39.68
2023-04-11T17:20:34.906Z,39.55
2023-04-11T17:23:01.523Z,39.71
2023-04-11T17:25:30.029Z,40.08
2023-04-11T17:27:57.417Z,39.60
2023-04-11T17:30:23.939Z,39.54
2023-04-11T17:32:50.756Z,39.79
2023-04-11T17:35:17.560Z,39.61
2023-04-11T17:37:44.163Z,39.36
2023-04-11T17:40:12.472Z,39.29
2023-04-11T17:42:39.249Z,39.43
2023-04-11T17:47:42.681Z,39.18
2023-04-11T17:50:12.627Z,39.19
2023-04-11T17:52:41.717Z,39.07
2023-04-11T17:55:10.338Z,39.06
2023-04-11T17:57:37.123Z,39.08
2023-04-11T18:00:14.950Z,38.90
2023-04-11T18:02:42.522Z,39.09
2023-04-11T18:05:20.714Z,39.02
2023-04-11T18:07:50.722Z,38.78
2023-04-11T18:10:18.304Z,39.08
2023-04-11T18:12:48.379Z,38.91
2023-04-11T18:15:15.045Z,39.12
2023-04-11T18:17:42.256Z,39.24
2023-04-11T18:20:10.594Z,39.04
2023-04-11T18:22:39.566Z,39.42
2023-04-11T18:25:07.399Z,39.35
2023-04-11T18:27:36.096Z,38.89
2023-04-11T18:30:04.876Z,39.45
2023-04-11T18:32:36.179Z,39.36
2023-04-11T18:35:07.191Z,39.32
2023-04-11T18:37:40.243Z,39.28
2023-04-11T18:40:14.283Z,39.29
2023-04-11T18:42:47.786Z,39.04
2023-04-11T18:45:17.491Z,39.37
2023-04-11T18:47:47.189Z,39.38
2023-04-11T18:50:14.824Z,39.16
2023-04-11T18:52:42.025Z,39.49
2023-04-11T18:55:10.202Z,39.42
2023-04-11T18:57:38.442Z,39.68
2023-04-11T19:00:16.757Z,39.36
2023-04-11T19:02:44.852Z,39.96
2023-04-11T19:05:13.639Z,39.75
2023-04-11T19:07:44.134Z,39.43
2023-04-11T19:10:11.743Z,40.05
2023-04-11T19:12:38.602Z,40.15
2023-04-11T19:15:08.223Z,40.36
2023-04-11T19:17:38.863Z,40.17
2023-04-11T19:20:13.109Z,40.31
2023-04-11T19:22:43.198Z,40.28
2023-04-11T19:25:11.307Z,40.47
2023-04-11T19:27:40.291Z,40.08
2023-04-11T19:30:08.829Z,40.27
2023-04-11T19:32:38.495Z,40.15
2023-04-11T19:35:08.758Z,40.53
2023-04-11T19:37:36.279Z,40.72
2023-04-11T19:40:15.977Z,40.72
2023-04-11T19:42:43.089Z,40.39
2023-04-11T19:45:11.190Z,39.92
2023-04-11T19:47:39.811Z,40.18
2023-04-11T19:50:09.338Z,40.44
2023-04-11T19:52:36.378Z,40.07
2023-04-11T19:55:03.063Z,40.75
2023-04-11T19:57:29.876Z,40.36
2023-04-11T19:59:57.689Z,40.55
2023-04-11T20:02:24.363Z,40.13
2023-04-11T20:04:52.063Z,40.46
2023-04-11T20:07:18.621Z,40.27
2023-04-11T20:09:45.231Z,40.86
2023-04-11T20:12:11.758Z,40.80
2023-04-11T20:14:38.438Z,40.86
2023-04-11T20:17:08.502Z,40.93
2023-04-11T20:19:37.621Z,40.52
2023-04-11T20:22:04.801Z,40.49
2023-04-11T20:24:31.575Z,40.97
2023-04-11T20:26:58.150Z,40.66
2023-04-11T20:29:32.811Z,40.18
2023-04-11T20:31:59.820Z,40.46
2023-04-11T20:34:26.420Z,40.57
2023-04-11T20:36:53.020Z,40.15
2023-04-11T20:39:19.590Z,40.27
2023-04-11T20:41:46.144Z,40.65
2023-04-11T20:44:13.356Z,40.45
2023-04-11T20:46:40.532Z,40.41
2023-04-11T20:49:07.124Z,40.87
2023-04-11T20:51:34.495Z,41.05
2023-04-11T20:54:01.232Z,41.20
2023-04-11T20:56:27.942Z,41.32
2023-04-11T20:58:54.643Z,40.99
2023-04-11T21:01:22.548Z,41.25
2023-04-11T21:03:51.205Z,40.63
2023-04-11T21:06:17.896Z,40.49
2023-04-11T21:08:44.517Z,41.06
2023-04-11T21:11:11.394Z,40.99
2023-04-11T21:13:37.913Z,41.28
2023-04-11T21:16:04.714Z,41.01
2023-04-11T21:18:31.279Z,41.02
2023-04-11T21:20:57.878Z,41.02
2023-04-11T21:23:24.394Z,41.14
2023-04-11T21:25:50.915Z,41.48
2023-04-11T21:28:17.454Z,41.07
2023-04-11T21:30:44.010Z,41.13
2023-04-11T21:33:10.728Z,41.28
2023-04-11T21:35:37.364Z,41.34
2023-04-11T21:38:03.979Z,41.06
2023-04-11T21:40:30.754Z,41.35
2023-04-11T21:42:57.257Z,41.19
2023-04-11T21:45:23.826Z,41.73
2023-04-11T21:47:53.537Z,41.59
2023-04-11T21:50:20.395Z,41.35
2023-04-11T21:52:47.027Z,41.01
2023-04-11T21:55:15.032Z,41.80
2023-04-11T21:57:42.121Z,41.13
2023-04-11T22:00:11.087Z,41.90
2023-04-11T22:02:38.377Z,41.52
2023-04-11T22:05:07.248Z,41.27
2023-04-11T22:07:38.578Z,41.97
2023-04-11T22:10:09.964Z,41.87
2023-04-11T22:12:36.874Z,41.16
2023-04-11T22:15:05.196Z,41.92
2023-04-11T22:17:32.217Z,41.97
2023-04-11T22:19:58.789Z,41.69
2023-04-11T22:22:30.134Z,41.54
2023-04-11T22:24:59.951Z,41.86
2023-04-11T22:27:27.188Z,41.68
2023-04-11T22:29:57.312Z,41.83
2023-04-11T22:32:24.109Z,41.90
2023-04-11T22:34:51.210Z,41.97
2023-04-11T22:37:20.764Z,41.66
2023-04-11T22:39:47.293Z,41.87
2023-04-11T22:42:13.851Z,41.90
2023-04-11T22:44:40.917Z,41.98
2023-04-11T22:47:15.904Z,42.01
2023-04-11T22:49:42.778Z,41.93
2023-04-11T22:52:14.127Z,42.25
2023-04-11T22:54:41.467Z,42.16
2023-04-11T22:57:08.052Z,42.14
2023-04-11T22:59:34.578Z,41.98
2023-04-11T23:02:01.102Z,42.09
2023-04-11T23:04:27.714Z,42.65
2023-04-11T23:06:54.384Z,42.20
2023-04-11T23:09:21.399Z,42.44
2023-04-11T23:11:48.101Z,42.45
2023-04-11T23:14:15.463Z,42.47
2023-04-11T23:16:43.384Z,42.17
2023-04-11T23:19:10.224Z,42.13
2023-04-11T23:21:39.753Z,42.27
2023-04-11T23:24:06.878Z,42.67
2023-04-11T23:26:33.461Z,42.60
2023-04-11T23:29:02.263Z,42.54
2023-04-11T23:31:29.530Z,42.69
2023-04-11T23:33:56.842Z,42.67
2023-04-11T23:36:23.682Z,42.63
2023-04-11T23:38:50.193Z,42.37
2023-04-11T23:41:16.672Z,43.11
2023-04-11T23:43:43.198Z,42.92
2023-04-11T23:46:09.954Z,42.68
2023-04-11T23:48:36.947Z,43.00
2023-04-11T23:51:03.631Z,42.70
2023-04-11T23:53:31.625Z,43.08
2023-04-11T23:55:58.275Z,42.82
2023-04-11T23:58:24.788Z,42.76
